createdAt,value
2023-02-02T09:20:20.585Z,0.80
2023-02-02T09:24:21.974Z,0.80
2023-02-02T09:28:23.229Z,0.90
2023-02-02T09:32:23.408Z,0.90
2023-02-02T09:36:27.630Z,0.90
2023-02-02T09:40:30.544Z,0.90
2023-02-02T09:44:58.804Z,1.00
2023-02-02T09:49:05.340Z,1.00
2023-02-02T09:53:18.768Z,1.00
2023-02-02T09:57:27.440Z,1.00
2023-02-02T10:01:35.121Z,1.00
2023-02-02T10:05:55.513Z,1.00
2023-02-02T10:10:06.267Z,1.00
2023-02-02T10:14:14.898Z,1.00
2023-02-02T10:18:25.004Z,1.10
2023-02-02T10:23:12.557Z,1.00
2023-02-02T10:27:19.917Z,1.10
2023-02-02T10:31:52.166Z,1.10
2023-02-02T10:36:02.138Z,1.10
2023-02-02T10:40:20.562Z,1.10
2023-02-02T10:44:38.869Z,1.20
2023-02-02T10:48:39.462Z,1.20
2023-02-02T10:52:41.328Z,1.20
2023-02-02T10:56:52.706Z,1.30
2023-02-02T11:01:00.231Z,1.30
2023-02-02T11:05:12.832Z,1.30
2023-02-02T11:09:21.833Z,1.40
2023-02-02T11:13:33.592Z,1.40
2023-02-02T11:17:37.626Z,1.40
2023-02-02T11:21:40.824Z,1.40
2023-02-02T11:25:42.058Z,1.40
2023-02-02T11:29:49.131Z,1.40
2023-02-02T11:33:53.939Z,1.40
2023-02-02T11:38:17.665Z,1.40
2023-02-02T11:47:29.567Z,1.40
2023-02-02T11:51:34.498Z,1.40
2023-02-02T11:55:35.609Z,1.40
2023-02-02T11:59:40.306Z,1.40
2023-02-02T12:03:42.166Z,1.30
2023-02-02T12:07:46.936Z,1.30
2023-02-02T12:12:05.800Z,1.30
2023-02-02T12:16:26.272Z,1.20
2023-02-02T12:20:43.116Z,1.20
2023-02-02T12:24:59.521Z,1.20
2023-02-02T12:29:40.345Z,1.20
2023-02-02T12:33:52.411Z,1.20
2023-02-02T12:38:10.753Z,1.20
2023-02-02T12:42:51.439Z,1.20
2023-02-02T12:47:14.519Z,1.20
2023-02-02T12:51:38.107Z,1.30
2023-02-02T12:55:49.348Z,1.30
2023-02-02T13:00:24.623Z,1.30
2023-02-02T13:04:45.565Z,1.30
2023-02-02T13:08:53.880Z,1.40
2023-02-02T13:13:00.677Z,1.30
2023-02-02T13:17:09.823Z,1.30
2023-02-02T13:21:16.956Z,1.30
2023-02-02T13:25:27.185Z,1.20
2023-02-02T13:29:39.046Z,1.20
2023-02-02T13:34:02.581Z,1.20
2023-02-02T13:38:14.974Z,1.20
2023-02-02T13:42:38.135Z,1.10
2023-02-02T13:46:51.145Z,1.20
2023-02-02T13:51:17.911Z,1.10
2023-02-02T13:55:58.616Z,1.20
2023-02-02T14:00:14.939Z,1.20
2023-02-02T14:04:26.268Z,1.10
2023-02-02T14:08:31.706Z,1.10
2023-02-02T14:12:36.703Z,1.10
2023-02-02T14:16:55.922Z,1.10
2023-02-02T14:20:56.092Z,1.10
2023-02-02T14:24:58.819Z,1.10
2023-02-02T14:28:58.887Z,1.10
2023-02-02T14:33:29.137Z,1.10
2023-02-02T14:37:52.128Z,1.10
2023-02-02T14:42:32.437Z,1.10
2023-02-02T14:46:48.331Z,1.00
2023-02-02T14:50:54.624Z,1.00
2023-02-02T14:54:58.018Z,1.00
2023-02-02T14:59:05.568Z,1.00
2023-02-02T15:03:38.537Z,1.00
2023-02-02T15:07:56.872Z,1.00
2023-02-02T15:12:33.984Z,1.00
2023-02-02T15:16:42.567Z,1.10
2023-02-02T15:20:50.065Z,1.10
2023-02-02T15:24:50.972Z,1.00
2023-02-02T15:29:00.177Z,1.00
2023-02-02T15:33:10.413Z,1.00
2023-02-02T15:37:18.696Z,0.90
2023-02-02T15:41:26.462Z,0.90
2023-02-02T15:45:38.100Z,0.80
2023-02-02T15:49:41.509Z,0.80
2023-02-02T15:53:52.259Z,0.80
2023-02-02T15:57:55.255Z,0.80
2023-02-02T16:02:07.089Z,0.80
2023-02-02T16:06:11.447Z,0.70
2023-02-02T16:10:22.457Z,0.70
2023-02-02T16:14:23.872Z,0.60
2023-02-02T16:18:24.030Z,0.60
2023-02-02T16:22:30.650Z,0.50
2023-02-02T16:26:34.172Z,0.50
2023-02-02T16:30:37.380Z,0.50
2023-02-02T16:34:49.156Z,0.50
2023-02-02T16:38:53.555Z,0.50
2023-02-02T16:43:07.855Z,0.50
2023-02-02T16:47:10.544Z,0.50
2023-02-02T16:51:30.777Z,0.40
2023-02-02T16:55:49.881Z,0.40
2023-02-02T16:59:55.113Z,0.40
2023-02-02T17:03:58.702Z,0.40
2023-02-02T17:08:04.604Z,0.40
2023-02-02T17:12:33.627Z,0.40
2023-02-02T17:16:34.517Z,0.40
2023-02-02T17:20:35.755Z,0.40
2023-02-02T17:24:37.156Z,0.40
2023-02-02T17:28:42.930Z,0.40
2023-02-02T17:32:44.081Z,0.40
2023-02-02T17:36:45.579Z,0.40
2023-02-02T17:40:45.943Z,0.40
2023-02-02T17:44:48.633Z,0.40
2023-02-02T17:48:49.150Z,0.40
2023-02-02T17:52:49.773Z,0.40
2023-02-02T17:56:49.879Z,0.40
2023-02-02T18:00:59.128Z,0.40
2023-02-02T18:04:59.354Z,0.40
2023-02-02T18:08:59.491Z,0.40
2023-02-02T18:13:00.886Z,0.40
2023-02-02T18:17:03.571Z,0.40
2023-02-02T18:21:04.627Z,0.40
2023-02-02T18:25:05.147Z,0.40
2023-02-02T18:29:22.979Z,0.40
2023-02-02T18:33:26.049Z,0.40
2023-02-02T18:37:26.840Z,0.40
2023-02-02T18:41:27.552Z,0.40
2023-02-02T18:45:27.951Z,0.40
2023-02-02T18:49:30.996Z,0.40
2023-02-02T18:53:31.144Z,0.40
2023-02-02T18:57:33.075Z,0.40
2023-02-02T19:01:33.485Z,0.40
2023-02-02T19:05:48.976Z,0.40
2023-02-02T19:09:49.137Z,0.40
2023-02-02T19:13:51.529Z,0.40
2023-02-02T19:17:55.025Z,0.40
2023-02-02T19:22:30.955Z,0.40
2023-02-02T19:26:57.131Z,0.40
2023-02-02T19:31:05.134Z,0.40
2023-02-02T19:35:05.908Z,0.40
2023-02-02T19:39:17.488Z,0.40
2023-02-02T19:43:29.167Z,0.40
2023-02-02T19:47:36.811Z,0.40
2023-02-02T19:51:45.672Z,0.40
2023-02-02T19:55:49.768Z,0.40
2023-02-02T19:59:52.748Z,0.40
2023-02-02T20:03:53.336Z,0.40
2023-02-02T20:08:00.300Z,0.50
2023-02-02T20:12:04.577Z,0.50
2023-02-02T20:16:05.357Z,0.40
2023-02-02T20:20:17.366Z,0.40
2023-02-02T20:24:22.313Z,0.40
2023-02-02T20:28:41.662Z,0.40
2023-02-02T20:32:44.637Z,0.40
2023-02-02T20:36:47.051Z,0.40
2023-02-02T20:40:47.183Z,0.40
2023-02-02T20:44:49.917Z,0.40
2023-02-02T20:48:50.533Z,0.40
2023-02-02T20:52:51.925Z,0.50
2023-02-02T20:56:52.593Z,0.40
2023-02-02T21:00:55.716Z,0.50
2023-02-02T21:04:57.155Z,0.50
2023-02-02T21:08:57.287Z,0.50
2023-02-02T21:12:57.437Z,0.50
2023-02-02T21:17:13.953Z,0.50
2023-02-02T21:21:15.954Z,0.50
2023-02-02T21:25:16.276Z,0.50
2023-02-02T21:29:16.490Z,0.50
2023-02-02T21:33:19.263Z,0.50
2023-02-02T21:37:19.783Z,0.50
2023-02-02T21:41:19.996Z,0.50
2023-02-02T21:45:41.112Z,0.50
2023-02-02T21:49:44.004Z,0.50
2023-02-02T21:53:44.207Z,0.50
2023-02-02T21:57:44.971Z,0.50
2023-02-02T22:01:45.617Z,0.50
2023-02-02T22:05:48.397Z,0.50
2023-02-02T22:09:49.294Z,0.50
2023-02-02T22:13:51.249Z,0.60
2023-02-02T22:17:51.507Z,0.60
2023-02-02T22:21:54.218Z,0.60
2023-02-02T22:25:58.035Z,0.60
2023-02-02T22:30:05.734Z,0.60
2023-02-02T22:34:06.033Z,0.60
2023-02-02T22:38:09.390Z,0.60
2023-02-02T22:42:09.600Z,0.60
2023-02-02T22:46:10.202Z,0.60
2023-02-02T22:50:11.520Z,0.60
2023-02-02T22:54:14.215Z,0.50
2023-02-02T22:58:14.277Z,0.60
2023-02-02T23:02:14.405Z,0.60
2023-02-02T23:06:14.451Z,0.70
2023-02-02T23:10:20.586Z,0.70
2023-02-02T23:14:20.724Z,0.80
2023-02-02T23:18:20.780Z,0.80
2023-02-02T23:22:21.062Z,1.00
2023-02-02T23:26:23.708Z,1.20
2023-02-02T23:30:24.812Z,1.20
2023-02-02T23:34:25.299Z,1.20
2023-02-02T23:38:25.460Z,1.20
2023-02-02T23:42:28.382Z,1.40
2023-02-02T23:46:29.213Z,1.60
2023-02-02T23:50:30.133Z,1.80
2023-02-02T23:54:31.177Z,1.90
2023-02-02T23:58:34.113Z,2.00
